Terminal Aerodrome Forecast
Issued by NWS

Home | Current Version | Previous Version | Text Only | Print | Product List | Glossary On
Versions: 1 2 3 4 5 6 7 8 9 10 11 12 13 14 15 16 17 18 19 20 21 22 23 24 25
000
FTUS45 KBOU 310745 AAB
TAFBJC
TAF AMD
KBJC 310745Z 3108/0106 36012G20KT P6SM BKN018
     FM310930 02008KT P6SM SCT006 OVC012
      TEMPO 3112/3115 4SM -DZ BR BKN006
     FM311500 14006KT P6SM BKN012 OVC030
     FM311800 08008KT P6SM SCT020 BKN035
     FM312200 03010KT P6SM SCT030 BKN060
      TEMPO 3123/0103 5SM SHRA OVC030
     FM010300 VRB05KT P6SM SCT020 BKN035 PROB30 0103/0106 -SHRA=

USA.gov is the U.S. government's official web portal to all federal, state and local government web resources and services.